createdAt,value
2022-10-24T00:01:19.024Z,14.18
2022-10-24T00:03:46.589Z,14.10
2022-10-24T00:06:13.936Z,14.17
2022-10-24T00:08:43.409Z,14.05
2022-10-24T00:11:23.627Z,14.11
2022-10-24T00:13:51.465Z,14.12
2022-10-24T00:16:18.975Z,14.18
2022-10-24T00:18:46.384Z,14.21
2022-10-24T00:21:13.716Z,14.18
2022-10-24T00:23:40.687Z,14.13
2022-10-24T00:26:07.905Z,14.15
2022-10-24T00:28:37.195Z,14.06
2022-10-24T00:31:06.857Z,14.04
2022-10-24T00:33:33.964Z,14.07
2022-10-24T00:36:00.853Z,14.04
2022-10-24T00:38:27.635Z,14.04
2022-10-24T00:40:54.443Z,14.00
2022-10-24T00:43:25.369Z,13.95
2022-10-24T00:46:00.915Z,13.96
2022-10-24T00:48:35.494Z,13.88
2022-10-24T00:51:27.246Z,13.86
2022-10-24T00:54:09.101Z,13.76
2022-10-24T00:56:42.473Z,13.83
2022-10-24T00:59:11.450Z,13.84
2022-10-24T01:01:39.009Z,13.87
2022-10-24T01:04:07.724Z,13.89
2022-10-24T01:07:03.852Z,13.83
2022-10-24T01:10:07.533Z,13.75
2022-10-24T01:13:17.595Z,13.73
2022-10-24T01:15:51.550Z,13.76
2022-10-24T01:18:47.325Z,13.76
2022-10-24T01:21:52.492Z,13.77
2022-10-24T01:25:04.182Z,13.75
2022-10-24T01:28:02.042Z,13.76
2022-10-24T01:30:33.002Z,13.78
2022-10-24T01:33:11.064Z,13.76
2022-10-24T01:35:43.721Z,13.75
2022-10-24T01:38:17.302Z,13.71
2022-10-24T01:41:01.466Z,13.68
2022-10-24T01:43:41.010Z,13.62
2022-10-24T01:46:16.838Z,13.63
2022-10-24T01:48:50.681Z,13.65
2022-10-24T01:51:21.592Z,13.65
2022-10-24T01:53:49.452Z,13.68
2022-10-24T01:56:16.343Z,13.69
2022-10-24T01:58:43.245Z,13.71
2022-10-24T02:01:19.671Z,13.69
2022-10-24T02:03:57.306Z,13.71
2022-10-24T02:06:35.083Z,13.68
2022-10-24T02:09:08.302Z,13.64
2022-10-24T02:11:36.270Z,13.69
2022-10-24T02:14:28.787Z,13.73
2022-10-24T02:16:55.603Z,13.72
2022-10-24T02:19:22.649Z,13.68
2022-10-24T02:22:15.919Z,13.57
2022-10-24T02:24:54.701Z,13.59
2022-10-24T02:27:29.080Z,13.56
2022-10-24T02:30:09.846Z,13.51
2022-10-24T02:32:42.556Z,13.62
2022-10-24T02:35:11.902Z,13.58
2022-10-24T02:37:48.141Z,13.61
2022-10-24T02:40:18.125Z,13.62
2022-10-24T02:42:47.985Z,13.57
2022-10-24T02:45:15.903Z,13.61
2022-10-24T02:47:45.413Z,13.60
2022-10-24T02:50:13.520Z,13.63
2022-10-24T02:52:42.816Z,13.62
2022-10-24T02:55:11.741Z,13.65
2022-10-24T02:57:39.479Z,13.67
2022-10-24T03:00:10.101Z,13.67
2022-10-24T03:02:36.917Z,13.64
2022-10-24T03:05:04.241Z,13.66
2022-10-24T03:10:17.981Z,13.69
2022-10-24T03:12:45.296Z,13.69
2022-10-24T03:15:12.853Z,13.71
2022-10-24T03:17:39.686Z,13.67
2022-10-24T03:20:07.381Z,13.75
2022-10-24T03:22:34.229Z,13.69
2022-10-24T03:25:03.329Z,13.76
2022-10-24T03:27:30.572Z,13.77
2022-10-24T03:29:57.572Z,13.82
2022-10-24T03:32:24.380Z,13.82
2022-10-24T03:34:51.257Z,13.84
2022-10-24T03:37:19.429Z,13.77
2022-10-24T03:39:46.302Z,13.92
2022-10-24T03:42:13.419Z,13.86
2022-10-24T03:44:40.935Z,13.96
2022-10-24T03:47:07.725Z,13.97
2022-10-24T03:49:34.677Z,14.04
2022-10-24T03:52:01.536Z,13.95
2022-10-24T03:54:28.359Z,14.00
2022-10-24T03:56:55.598Z,14.06
2022-10-24T03:59:22.634Z,14.14
2022-10-24T04:01:49.822Z,14.14
2022-10-24T04:04:16.791Z,13.99
2022-10-24T04:06:43.554Z,14.18
2022-10-24T04:09:10.444Z,14.20
2022-10-24T04:11:37.278Z,14.12
2022-10-24T04:14:05.579Z,14.11
2022-10-24T04:16:34.907Z,14.08
2022-10-24T04:19:02.583Z,14.08
2022-10-24T04:21:29.815Z,14.07
2022-10-24T04:23:57.120Z,13.95
2022-10-24T04:26:24.487Z,13.94
2022-10-24T04:28:51.296Z,13.92
2022-10-24T04:31:22.435Z,13.93
2022-10-24T04:33:50.635Z,14.04
2022-10-24T04:36:17.476Z,14.06
2022-10-24T04:38:44.317Z,14.13
2022-10-24T04:41:12.234Z,14.15
2022-10-24T04:43:39.910Z,14.05
2022-10-24T04:46:07.147Z,14.13
2022-10-24T04:48:35.135Z,14.16
2022-10-24T04:51:01.980Z,14.18
2022-10-24T04:53:28.804Z,14.10
2022-10-24T04:55:55.671Z,14.14
2022-10-24T04:58:22.457Z,14.08
2022-10-24T05:00:50.459Z,14.16
2022-10-24T05:03:18.640Z,14.18
2022-10-24T05:05:46.506Z,14.17
2022-10-24T05:08:13.443Z,14.16
2022-10-24T05:10:40.293Z,14.21
2022-10-24T05:13:07.685Z,14.38
2022-10-24T05:15:34.507Z,14.37
2022-10-24T05:18:01.468Z,14.32
2022-10-24T05:20:28.624Z,14.29
2022-10-24T05:22:55.984Z,14.27
2022-10-24T05:25:23.561Z,14.28
2022-10-24T05:27:50.401Z,14.23
2022-10-24T05:30:17.261Z,14.26
2022-10-24T05:32:44.737Z,14.38
2022-10-24T05:35:12.011Z,14.21
2022-10-24T05:37:39.286Z,14.17
2022-10-24T05:40:09.714Z,14.12
2022-10-24T05:42:37.966Z,14.11
2022-10-24T05:45:07.481Z,14.13
2022-10-24T05:47:34.541Z,14.10
2022-10-24T05:50:01.459Z,14.04
2022-10-24T05:52:28.372Z,14.12
2022-10-24T05:55:06.378Z,14.12
2022-10-24T05:57:34.673Z,14.05
2022-10-24T06:00:01.592Z,14.05
2022-10-24T06:02:28.545Z,14.03
2022-10-24T06:04:57.153Z,13.97
2022-10-24T06:07:24.005Z,13.96
2022-10-24T06:09:51.391Z,13.98
2022-10-24T06:12:18.235Z,13.97
2022-10-24T06:14:45.104Z,13.93
2022-10-24T06:17:12.188Z,13.84
2022-10-24T06:19:40.099Z,13.77
2022-10-24T06:22:08.653Z,13.84
2022-10-24T06:24:37.500Z,13.68
2022-10-24T06:27:06.101Z,13.78
2022-10-24T06:29:33.453Z,13.67
2022-10-24T06:32:00.341Z,13.70
2022-10-24T06:34:27.617Z,13.60
2022-10-24T06:36:57.336Z,13.70
2022-10-24T06:39:24.273Z,13.60
2022-10-24T06:41:51.083Z,13.65
2022-10-24T06:44:17.879Z,13.70
2022-10-24T06:46:45.088Z,13.76
2022-10-24T06:49:13.326Z,13.79
2022-10-24T06:51:41.195Z,13.83
2022-10-24T06:54:08.028Z,13.84
2022-10-24T06:56:35.023Z,13.98
2022-10-24T06:59:01.869Z,13.96
2022-10-24T07:01:28.936Z,13.91
2022-10-24T07:03:55.806Z,14.00
2022-10-24T07:06:27.055Z,14.10
2022-10-24T07:08:56.837Z,14.16
2022-10-24T07:11:24.058Z,14.09
2022-10-24T07:13:50.928Z,14.10
2022-10-24T07:16:18.223Z,14.09
2022-10-24T07:18:45.597Z,14.21
2022-10-24T07:21:20.615Z,14.18
2022-10-24T07:23:47.552Z,14.23
2022-10-24T07:26:16.607Z,14.23
2022-10-24T07:28:46.760Z,14.24
2022-10-24T07:31:17.871Z,14.12
2022-10-24T07:33:44.785Z,14.22
2022-10-24T07:36:20.041Z,14.20
2022-10-24T07:38:52.356Z,14.28
2022-10-24T07:41:19.302Z,14.26
2022-10-24T07:43:46.518Z,14.33
2022-10-24T07:46:16.463Z,14.31
2022-10-24T07:48:43.522Z,14.26
2022-10-24T07:51:14.163Z,14.22
2022-10-24T07:53:42.770Z,14.31
2022-10-24T07:56:17.270Z,14.40
2022-10-24T07:58:45.864Z,14.36
2022-10-24T08:01:21.318Z,14.28
2022-10-24T08:03:49.028Z,14.28
2022-10-24T08:06:26.640Z,14.31
2022-10-24T08:08:53.454Z,14.34
2022-10-24T08:11:24.087Z,14.25
2022-10-24T08:13:53.290Z,14.22
2022-10-24T08:16:23.706Z,14.34
2022-10-24T08:18:52.608Z,14.49
2022-10-24T08:21:21.797Z,14.59
2022-10-24T08:23:52.598Z,14.65
2022-10-24T08:26:23.431Z,14.64
2022-10-24T08:28:50.738Z,14.68
2022-10-24T08:31:21.363Z,14.74
2022-10-24T08:33:51.350Z,14.84
2022-10-24T08:36:34.120Z,14.84
2022-10-24T08:39:01.869Z,14.87
2022-10-24T08:41:37.822Z,14.90
2022-10-24T08:44:21.457Z,14.88
2022-10-24T08:47:25.654Z,14.85
2022-10-24T08:50:06.273Z,14.83
2022-10-24T08:52:44.277Z,14.76
2022-10-24T08:55:44.315Z,14.75
2022-10-24T08:58:13.381Z,14.66
2022-10-24T09:00:45.913Z,14.71
2022-10-24T09:03:50.869Z,14.73
2022-10-24T09:06:24.624Z,14.78
2022-10-24T09:08:58.437Z,14.70
2022-10-24T09:11:31.907Z,14.75
2022-10-24T09:14:02.769Z,14.74
2022-10-24T09:16:29.673Z,14.73
2022-10-24T09:18:57.893Z,14.82
2022-10-24T09:21:24.721Z,14.83
2022-10-24T09:23:52.268Z,14.82
2022-10-24T09:26:29.229Z,14.86
2022-10-24T09:28:57.199Z,14.79
2022-10-24T09:31:26.673Z,14.85
2022-10-24T09:33:54.352Z,14.79
2022-10-24T09:36:25.131Z,14.79
2022-10-24T09:38:52.038Z,14.73
2022-10-24T09:41:28.347Z,14.68
2022-10-24T09:44:01.004Z,14.58
2022-10-24T09:46:48.094Z,14.43
2022-10-24T09:49:22.645Z,14.41
2022-10-24T09:52:17.493Z,14.32
2022-10-24T09:54:45.322Z,14.40
2022-10-24T09:57:12.043Z,14.37
2022-10-24T09:59:48.758Z,14.40
2022-10-24T10:02:28.568Z,14.49
2022-10-24T10:05:04.488Z,14.31
2022-10-24T10:07:38.009Z,14.35
2022-10-24T10:10:35.201Z,14.40
2022-10-24T10:13:15.558Z,14.38
2022-10-24T10:16:09.939Z,14.43
2022-10-24T10:18:38.445Z,14.47
2022-10-24T10:21:21.818Z,14.36
2022-10-24T10:23:55.180Z,14.29
2022-10-24T10:26:46.597Z,14.21
2022-10-24T10:29:19.228Z,14.12
2022-10-24T10:31:50.695Z,14.05
2022-10-24T10:34:21.957Z,14.08
2022-10-24T10:37:13.375Z,13.99
2022-10-24T10:40:31.816Z,13.97
2022-10-24T10:43:31.226Z,14.05
2022-10-24T10:46:47.985Z,14.08
2022-10-24T10:49:31.945Z,14.11
2022-10-24T10:52:20.153Z,14.16
2022-10-24T10:55:08.987Z,14.01
2022-10-24T10:58:25.776Z,14.11
2022-10-24T11:01:06.798Z,14.22
2022-10-24T11:04:06.742Z,14.21
2022-10-24T11:06:54.286Z,14.27
2022-10-24T11:09:30.229Z,14.21
2022-10-24T11:12:18.399Z,14.22
2022-10-24T11:14:55.497Z,14.24
2022-10-24T11:17:28.405Z,14.14
2022-10-24T11:20:21.589Z,14.08
2022-10-24T11:22:55.938Z,14.22
2022-10-24T11:25:35.433Z,14.07
2022-10-24T11:28:17.481Z,14.09
2022-10-24T11:31:13.861Z,14.06
2022-10-24T11:33:56.957Z,14.22
2022-10-24T11:36:35.379Z,14.27
2022-10-24T11:39:26.123Z,14.16
2022-10-24T11:42:12.922Z,14.27
2022-10-24T11:45:05.596Z,14.31
2022-10-24T11:47:46.657Z,14.26
2022-10-24T11:50:36.304Z,14.29
2022-10-24T11:53:14.972Z,14.39
2022-10-24T11:55:47.738Z,14.45
2022-10-24T11:58:18.976Z,14.53
2022-10-24T12:00:51.857Z,14.61
2022-10-24T12:04:02.927Z,14.64
2022-10-24T12:06:48.136Z,14.73
2022-10-24T12:09:36.087Z,14.83
2022-10-24T12:13:06.121Z,14.78
2022-10-24T12:16:31.737Z,14.75
2022-10-24T12:19:11.895Z,14.85
2022-10-24T12:21:46.890Z,14.75
2022-10-24T12:24:33.126Z,14.63
2022-10-24T12:27:07.021Z,14.53
2022-10-24T12:29:36.445Z,14.56
2022-10-24T12:32:36.457Z,14.43
2022-10-24T12:35:31.515Z,14.39
2022-10-24T12:37:59.570Z,14.32
2022-10-24T12:40:58.713Z,14.39
2022-10-24T12:43:33.870Z,14.31
2022-10-24T12:46:23.549Z,14.38
2022-10-24T12:48:59.364Z,14.32
2022-10-24T12:51:37.872Z,14.45
2022-10-24T12:54:14.593Z,14.50
2022-10-24T12:56:50.615Z,14.48
2022-10-24T12:59:21.657Z,14.51
2022-10-24T13:01:51.467Z,14.48
2022-10-24T13:08:16.012Z,14.41
2022-10-24T13:11:10.109Z,14.25
2022-10-24T13:13:52.582Z,14.09
2022-10-24T13:16:42.528Z,14.21
2022-10-24T13:19:17.123Z,14.32
2022-10-24T13:21:51.870Z,14.39
2022-10-24T13:24:20.097Z,14.44
2022-10-24T13:26:53.665Z,14.35
2022-10-24T13:29:41.333Z,14.35
2022-10-24T13:32:08.016Z,14.27
2022-10-24T13:34:50.623Z,14.38
2022-10-24T13:37:36.626Z,14.17
2022-10-24T13:40:11.148Z,14.19
2022-10-24T13:42:51.902Z,14.35
2022-10-24T13:45:47.289Z,14.35
2022-10-24T13:48:23.804Z,14.22
2022-10-24T13:51:32.618Z,14.26
2022-10-24T13:54:07.215Z,14.35
2022-10-24T13:56:40.128Z,14.35
2022-10-24T13:59:31.508Z,14.44
2022-10-24T14:02:03.641Z,14.39
2022-10-24T14:04:31.017Z,14.39
2022-10-24T14:07:03.890Z,14.37
2022-10-24T14:09:43.272Z,14.31
2022-10-24T14:12:22.077Z,14.31
2022-10-24T14:14:51.158Z,14.41
2022-10-24T14:17:22.979Z,14.34
2022-10-24T14:20:11.480Z,14.36
2022-10-24T14:22:41.696Z,14.24
2022-10-24T14:25:36.232Z,14.32
2022-10-24T14:28:16.599Z,14.08
2022-10-24T14:30:58.733Z,14.07
2022-10-24T14:33:42.604Z,14.09
2022-10-24T14:36:10.258Z,14.07
2022-10-24T14:38:37.545Z,14.10
2022-10-24T14:41:09.661Z,14.12
2022-10-24T14:43:42.180Z,13.99
2022-10-24T14:46:12.353Z,14.02
2022-10-24T14:48:43.420Z,13.97
2022-10-24T14:51:39.021Z,14.06
2022-10-24T14:54:22.232Z,14.16
2022-10-24T14:56:50.376Z,14.15
2022-10-24T14:59:29.478Z,14.26
2022-10-24T15:02:03.856Z,14.27
2022-10-24T15:04:45.838Z,14.21
2022-10-24T15:07:20.923Z,14.28
2022-10-24T15:09:59.372Z,14.33
2022-10-24T15:12:38.129Z,14.27
2022-10-24T15:15:25.914Z,14.38
2022-10-24T15:17:59.660Z,14.25
2022-10-24T15:20:28.661Z,14.21
2022-10-24T15:22:58.940Z,14.38
2022-10-24T15:25:32.923Z,14.30
2022-10-24T15:28:01.544Z,14.23
2022-10-24T15:30:37.483Z,14.32
2022-10-24T15:33:06.576Z,14.18
2022-10-24T15:35:41.053Z,14.27
2022-10-24T15:38:18.708Z,14.14
2022-10-24T15:40:49.015Z,14.15
2022-10-24T15:43:19.997Z,14.17
2022-10-24T15:45:47.046Z,14.09
2022-10-24T15:48:13.789Z,14.31
2022-10-24T15:50:45.650Z,14.27
2022-10-24T15:53:22.151Z,14.28
2022-10-24T15:55:58.361Z,14.19
2022-10-24T15:58:25.170Z,14.19
2022-10-24T16:00:52.081Z,14.07
2022-10-24T16:03:23.517Z,14.20
2022-10-24T16:05:55.003Z,14.00
2022-10-24T16:08:23.429Z,14.06
2022-10-24T16:10:52.696Z,14.04
2022-10-24T16:13:22.247Z,14.06
2022-10-24T16:15:50.185Z,14.08
2022-10-24T16:18:17.533Z,14.01
2022-10-24T16:20:44.306Z,14.04
2022-10-24T16:23:16.640Z,13.97
2022-10-24T16:25:43.938Z,13.91
2022-10-24T16:28:11.220Z,13.92
2022-10-24T16:30:40.651Z,13.97
2022-10-24T16:33:08.305Z,13.91
2022-10-24T16:35:37.921Z,13.82
2022-10-24T16:38:06.965Z,13.85
2022-10-24T16:40:43.143Z,13.69
2022-10-24T16:43:13.052Z,13.79
2022-10-24T16:45:40.514Z,13.75
2022-10-24T16:48:07.385Z,13.68
2022-10-24T16:50:34.190Z,13.73
2022-10-24T16:53:04.766Z,13.62
2022-10-24T16:55:32.360Z,13.56
2022-10-24T16:57:59.958Z,13.69
2022-10-24T17:00:27.445Z,13.68
2022-10-24T17:02:56.172Z,13.51
2022-10-24T17:05:26.801Z,13.50
2022-10-24T17:07:54.081Z,13.57
2022-10-24T17:10:23.861Z,13.46
2022-10-24T17:12:52.174Z,13.44
2022-10-24T17:15:22.210Z,13.45
2022-10-24T17:17:50.294Z,13.42
2022-10-24T17:20:17.831Z,13.51
2022-10-24T17:22:46.737Z,13.58
2022-10-24T17:25:25.261Z,13.56
2022-10-24T17:27:53.226Z,13.57
2022-10-24T17:30:32.254Z,13.42
2022-10-24T17:32:59.561Z,13.38
2022-10-24T17:35:27.446Z,13.32
2022-10-24T17:38:38.713Z,13.45
2022-10-24T17:41:22.717Z,13.33
2022-10-24T17:43:49.878Z,13.37
2022-10-24T17:46:17.124Z,13.38
2022-10-24T17:48:43.895Z,13.42
2022-10-24T17:51:15.088Z,13.38
2022-10-24T17:53:41.918Z,13.42
2022-10-24T17:56:10.170Z,13.40
2022-10-24T17:58:36.925Z,13.37
2022-10-24T18:01:04.029Z,13.40
2022-10-24T18:03:30.943Z,13.21
2022-10-24T18:06:03.544Z,13.24
2022-10-24T18:08:30.699Z,13.27
2022-10-24T18:11:03.160Z,13.16
2022-10-24T18:13:30.043Z,13.14
2022-10-24T18:15:56.738Z,13.24
2022-10-24T18:18:23.710Z,13.13
2022-10-24T18:20:50.654Z,13.13
2022-10-24T18:23:17.449Z,13.12
2022-10-24T18:25:44.164Z,13.09
2022-10-24T18:28:11.033Z,13.00
2022-10-24T18:30:37.768Z,12.95
2022-10-24T18:33:04.645Z,12.89
2022-10-24T18:35:34.148Z,12.80
2022-10-24T18:38:02.138Z,12.83
2022-10-24T18:40:29.485Z,12.82
2022-10-24T18:43:05.206Z,12.79
2022-10-24T18:45:33.220Z,12.68
2022-10-24T18:48:00.344Z,12.74
2022-10-24T18:50:27.445Z,12.63
2022-10-24T18:53:10.809Z,12.64
2022-10-24T18:55:38.105Z,12.51
2022-10-24T18:58:04.985Z,12.41
2022-10-24T19:00:38.198Z,12.46
2022-10-24T19:03:29.565Z,12.35
2022-10-24T19:06:31.245Z,12.31
2022-10-24T19:08:58.141Z,12.27
2022-10-24T19:11:25.006Z,12.21
2022-10-24T19:13:51.971Z,12.10
2022-10-24T19:16:28.611Z,12.06
2022-10-24T19:19:00.269Z,12.02
2022-10-24T19:21:27.030Z,11.91
2022-10-24T19:23:54.081Z,11.88
2022-10-24T19:26:20.946Z,11.88
2022-10-24T19:28:47.729Z,11.69
2022-10-24T19:31:15.824Z,11.72
2022-10-24T19:33:43.137Z,11.69
2022-10-24T19:36:13.370Z,11.64
2022-10-24T19:38:43.751Z,11.58
2022-10-24T19:41:11.801Z,11.62
2022-10-24T19:43:38.665Z,11.33
2022-10-24T19:46:19.298Z,11.52
2022-10-24T19:48:53.133Z,11.52
2022-10-24T19:51:21.047Z,11.45
2022-10-24T19:53:49.755Z,11.43
2022-10-24T19:56:25.139Z,11.47
2022-10-24T19:58:53.762Z,11.40
2022-10-24T20:01:25.038Z,11.07
2022-10-24T20:03:52.420Z,11.05
2022-10-24T20:06:19.519Z,11.08
2022-10-24T20:08:48.065Z,11.02
2022-10-24T20:11:15.796Z,10.95
2022-10-24T20:13:43.390Z,10.90
2022-10-24T20:16:13.570Z,10.82
2022-10-24T20:18:43.446Z,10.82
2022-10-24T20:21:16.321Z,10.74
2022-10-24T20:23:43.114Z,10.86
2022-10-24T20:26:17.075Z,10.70
2022-10-24T20:28:47.161Z,10.69
2022-10-24T20:31:38.259Z,10.70
2022-10-24T20:34:11.158Z,10.62
2022-10-24T20:36:41.732Z,10.59
2022-10-24T20:39:09.175Z,10.44
2022-10-24T20:41:36.725Z,10.44
2022-10-24T20:44:07.015Z,10.42
2022-10-24T20:46:35.225Z,10.40
2022-10-24T20:49:02.214Z,10.41
2022-10-24T20:51:28.977Z,10.40
2022-10-24T20:53:55.802Z,10.59
2022-10-24T20:56:26.089Z,10.62
2022-10-24T20:58:55.238Z,10.55
2022-10-24T21:01:29.135Z,10.58
2022-10-24T21:03:58.245Z,10.66
2022-10-24T21:06:33.402Z,10.70
2022-10-24T21:09:06.290Z,10.66
2022-10-24T21:11:34.589Z,10.63
2022-10-24T21:14:08.134Z,10.67
2022-10-24T21:16:35.001Z,10.63
2022-10-24T21:19:02.538Z,10.63
2022-10-24T21:21:29.292Z,10.64
2022-10-24T21:24:02.453Z,10.63
2022-10-24T21:26:33.973Z,10.64
2022-10-24T21:29:08.979Z,10.68
2022-10-24T21:31:41.718Z,10.61
2022-10-24T21:34:08.451Z,10.61
2022-10-24T21:36:35.297Z,10.66
2022-10-24T21:39:02.030Z,10.64
2022-10-24T21:41:28.933Z,10.55
2022-10-24T21:43:55.799Z,10.49
2022-10-24T21:46:29.338Z,10.48
2022-10-24T21:48:57.207Z,10.45
2022-10-24T21:51:33.284Z,10.35
2022-10-24T21:54:16.882Z,10.39
2022-10-24T21:56:43.699Z,10.25
2022-10-24T21:59:17.276Z,10.25
2022-10-24T22:01:46.752Z,10.31
2022-10-24T22:04:14.873Z,10.27
2022-10-24T22:06:42.499Z,10.15
2022-10-24T22:09:17.292Z,10.13
2022-10-24T22:11:45.044Z,10.12
2022-10-24T22:14:15.472Z,10.00
2022-10-24T22:16:43.380Z,10.11
2022-10-24T22:19:12.520Z,10.11
2022-10-24T22:21:45.723Z,10.09
2022-10-24T22:24:23.952Z,10.08
2022-10-24T22:26:51.833Z,10.14
2022-10-24T22:29:23.577Z,10.05
2022-10-24T22:31:52.475Z,10.20
2022-10-24T22:34:25.266Z,10.16
2022-10-24T22:37:20.447Z,10.22
2022-10-24T22:39:47.546Z,10.02
2022-10-24T22:42:19.168Z,10.09
2022-10-24T22:44:48.745Z,9.96
2022-10-24T22:47:58.156Z,9.95
2022-10-24T22:50:53.365Z,9.94
2022-10-24T22:53:31.336Z,9.88
2022-10-24T22:56:19.925Z,9.97
2022-10-24T22:58:47.351Z,9.91
2022-10-24T23:01:37.859Z,9.94
2022-10-24T23:04:25.178Z,9.75
2022-10-24T23:07:09.763Z,9.82
2022-10-24T23:09:36.521Z,9.90
2022-10-24T23:12:15.020Z,9.75
2022-10-24T23:14:43.018Z,9.79
2022-10-24T23:17:14.037Z,9.79
2022-10-24T23:19:45.907Z,9.75
2022-10-24T23:22:32.910Z,9.75
2022-10-24T23:25:01.480Z,9.75
2022-10-24T23:27:39.296Z,9.81
2022-10-24T23:30:22.075Z,9.71
2022-10-24T23:32:51.028Z,9.68
2022-10-24T23:35:20.082Z,9.55
2022-10-24T23:37:49.944Z,9.48
2022-10-24T23:40:37.304Z,9.52
2022-10-24T23:43:04.932Z,9.47
2022-10-24T23:45:37.289Z,9.56
2022-10-24T23:48:30.157Z,9.61
2022-10-24T23:51:12.310Z,9.63
2022-10-24T23:53:51.435Z,9.67
2022-10-24T23:56:24.732Z,9.66
2022-10-24T23:58:52.440Z,9.68
